Terminal Aerodrome Forecast
Issued by NWS Jackson, KY

Home | Current Version | Previous Version | Text Only | Print | Product List | Glossary On
Versions: 1 2 3 4 5 6 7 8 9 10 11 12 13 14 15 16
000
FTUS43 KJKL 211139
TAFJKL
TAF
KJKL 211139Z 2112/2212 VRB06KT P6SM SKC
     FM211400 24012G24KT P6SM FEW080 SCT250
     FM212300 23010KT P6SM VCSH SCT050 BKN080
     FM220800 23006KT 6SM -SHRA BR SCT025 OVC035=

USA.gov is the U.S. government's official web portal to all federal, state and local government web resources and services.